Startpagina
METAR-TAF:

METAR-TAF

Vliegvelden :

Pohnpei, Micronesië

breedte: 06-59N, lengte: 158-12E, hoogte: 2 m

Actueel weer

Dit bericht is 3 uur en het 17 minuten geleden gemaakt, om 03:50 UTC
Wind 15 kt uit het oosten
Temperatuur 31°C
Vochtigheid 71%
Druk 1008 hPa
Zicht: 24.1 km
Verspreide wolken op 1800 ft, Stapelwolken.
Gebroken wolken op 13000 ft
Geheel bewolkt op 30000 ft

METAR: PTPN 270350Z 08015KT 15SM SCT018TCU BKN130 OVC300 31/25 A2977 RMK TCU S LAST

Tijdstip: 18:07 (07:07 UTC)

Verwachting

Dit bericht is 6 uur en het 11 minuten geleden gemaakt, om 00:56 UTC
Verwachting geldig van 27 om 01 UTC tot 27 om 24 UTC
Wind 15 kt uit het oosten
Zicht: 10 km
Verspreide wolken op 1800 ft
Gebroken wolken op 12000 ft
buien in de omgeving
Tijdelijke
van 27 om 01 UTC tot 27 om 04 UTC
Gebroken wolken op 1800 ft

TAF: PTPN 270056Z 2701/2724 09015KT P6SM VCSH SCT018 BKN120 TEMPO 2701/2704 BKN018

Waarnemingen en weersverwachtingen van meer dan 4000 vliegvelden (METAR en TAF).

De beschikbare stations zijn de gele en rode punten op de kaart.

Ga met uw muis naar het station om de naam te zien.

Klik dan om waarnemingen en weersverwachtingen te zien.

kaart wijzigen: klik op de groene knoppen met een zwart kruis om in te zoomen, op de groene knop met een streepje om uit te zoomen of op de groene pijlen voor aangrenzende kaarten.


METAR-TAF: